createdAt,value
2022-11-29T00:01:35.394Z,64.70
2022-11-29T00:03:38.330Z,62.03
2022-11-29T00:05:41.135Z,61.21
2022-11-29T00:07:43.855Z,60.09
2022-11-29T00:09:46.718Z,60.06
2022-11-29T00:12:08.579Z,59.03
2022-11-29T00:14:14.287Z,57.31
2022-11-29T00:16:20.224Z,57.77
2022-11-29T00:18:23.045Z,59.48
2022-11-29T00:20:25.835Z,60.41
2022-11-29T00:22:29.465Z,61.76
2022-11-29T00:24:34.612Z,68.72
2022-11-29T00:26:40.795Z,72.03
2022-11-29T00:28:43.610Z,65.71
2022-11-29T00:30:47.480Z,60.16
2022-11-29T00:32:50.314Z,54.06
2022-11-29T00:34:53.315Z,52.55
2022-11-29T00:36:56.102Z,54.30
2022-11-29T00:38:58.980Z,56.19
2022-11-29T00:41:01.800Z,58.25
2022-11-29T00:43:04.653Z,59.97
2022-11-29T00:45:07.893Z,59.83
2022-11-29T00:47:10.685Z,60.66
2022-11-29T00:49:13.634Z,66.15
2022-11-29T00:51:16.475Z,71.80
2022-11-29T00:53:19.304Z,66.56
2022-11-29T00:55:22.136Z,61.83
2022-11-29T00:57:24.895Z,60.06
2022-11-29T00:59:27.695Z,57.78
2022-11-29T01:01:30.520Z,56.34
2022-11-29T01:03:34.416Z,57.26
2022-11-29T01:05:37.538Z,58.81
2022-11-29T01:07:40.526Z,60.29
2022-11-29T01:09:43.359Z,64.74
2022-11-29T01:11:46.108Z,71.48
2022-11-29T01:13:50.330Z,68.68
2022-11-29T01:15:57.525Z,62.51
2022-11-29T01:18:00.214Z,56.53
2022-11-29T01:20:04.937Z,53.10
2022-11-29T01:22:07.774Z,54.23
2022-11-29T01:24:10.498Z,55.10
2022-11-29T01:26:22.819Z,56.47
2022-11-29T01:28:26.087Z,60.32
2022-11-29T01:30:28.900Z,61.11
2022-11-29T01:32:31.730Z,66.18
2022-11-29T01:34:34.482Z,71.85
2022-11-29T01:36:37.288Z,69.96
2022-11-29T01:38:42.395Z,65.40
2022-11-29T01:40:46.300Z,59.78
2022-11-29T01:42:49.047Z,53.26
2022-11-29T01:45:24.806Z,52.60
2022-11-29T01:47:28.529Z,54.48
2022-11-29T01:49:41.383Z,56.33
2022-11-29T01:51:51.706Z,57.97
2022-11-29T01:53:55.483Z,59.47
2022-11-29T01:56:03.815Z,59.97
2022-11-29T01:58:09.087Z,66.76
2022-11-29T02:00:16.419Z,71.45
2022-11-29T02:02:31.298Z,67.11
2022-11-29T02:04:35.903Z,61.29
2022-11-29T02:06:39.783Z,55.86
2022-11-29T02:08:43.807Z,54.91
2022-11-29T02:11:12.250Z,56.62
2022-11-29T02:13:15.010Z,57.96
2022-11-29T02:15:28.553Z,60.69
2022-11-29T02:17:34.480Z,65.25
2022-11-29T02:20:21.522Z,68.04
2022-11-29T02:22:44.095Z,66.11
2022-11-29T02:25:18.152Z,63.90
2022-11-29T02:27:39.078Z,61.74
2022-11-29T02:29:57.639Z,53.74
2022-11-29T02:32:12.301Z,52.85
2022-11-29T02:34:25.499Z,55.27
2022-11-29T02:36:34.417Z,57.04
2022-11-29T02:39:09.487Z,58.09
2022-11-29T02:41:54.392Z,59.26
2022-11-29T02:44:17.325Z,61.05
2022-11-29T02:46:56.484Z,69.48
2022-11-29T02:49:22.497Z,69.79
2022-11-29T02:51:52.424Z,67.97
2022-11-29T02:54:21.727Z,66.01
2022-11-29T02:56:52.271Z,58.39
2022-11-29T02:59:24.922Z,53.57
2022-11-29T03:01:37.371Z,54.92
2022-11-29T03:03:51.111Z,57.20
2022-11-29T03:06:05.147Z,59.70
2022-11-29T03:08:45.215Z,61.35
2022-11-29T03:11:03.326Z,70.16
2022-11-29T03:13:13.213Z,69.69
2022-11-29T03:15:31.482Z,61.93
2022-11-29T03:17:52.929Z,53.60
2022-11-29T03:20:03.825Z,52.56
2022-11-29T03:22:36.267Z,54.74
2022-11-29T03:25:00.118Z,56.63
2022-11-29T03:27:09.529Z,57.57
2022-11-29T03:29:29.592Z,60.06
2022-11-29T03:31:43.236Z,66.60
2022-11-29T03:33:59.245Z,69.83
2022-11-29T03:36:19.239Z,67.83
2022-11-29T03:38:33.056Z,60.80
2022-11-29T03:40:45.675Z,55.47
2022-11-29T03:43:06.420Z,54.37
2022-11-29T03:45:18.891Z,55.79
2022-11-29T03:47:29.023Z,57.85
2022-11-29T03:49:45.026Z,60.73
2022-11-29T03:52:17.450Z,67.16
2022-11-29T03:54:28.160Z,70.50
2022-11-29T03:56:32.522Z,64.23
2022-11-29T03:58:56.936Z,58.10
2022-11-29T04:01:12.087Z,52.83
2022-11-29T04:03:17.956Z,53.99
2022-11-29T04:05:39.719Z,56.12
2022-11-29T04:08:17.894Z,57.62
2022-11-29T04:10:39.384Z,58.85
2022-11-29T04:13:06.957Z,59.87
2022-11-29T04:15:28.139Z,66.78
2022-11-29T04:17:51.691Z,70.59
2022-11-29T04:20:16.464Z,64.25
2022-11-29T04:22:45.526Z,61.19
2022-11-29T04:25:03.822Z,55.49
2022-11-29T04:27:28.361Z,53.82
2022-11-29T04:30:08.717Z,55.55
2022-11-29T04:33:00.834Z,57.51
2022-11-29T04:35:34.382Z,59.45
2022-11-29T04:38:11.512Z,60.82
2022-11-29T04:40:48.718Z,67.92
2022-11-29T04:43:22.565Z,68.49
2022-11-29T04:45:57.876Z,65.10
2022-11-29T04:48:22.770Z,61.71
2022-11-29T04:50:53.810Z,60.99
2022-11-29T04:52:56.469Z,60.29
2022-11-29T04:55:24.988Z,58.96
2022-11-29T04:58:07.174Z,55.81
2022-11-29T05:00:18.619Z,55.95
2022-11-29T05:02:49.737Z,57.74
2022-11-29T05:05:07.591Z,58.86
2022-11-29T05:07:51.780Z,61.60
2022-11-29T05:10:20.410Z,67.92
2022-11-29T05:12:51.389Z,69.64
2022-11-29T05:15:34.269Z,66.46
2022-11-29T05:17:58.767Z,65.60
2022-11-29T05:20:08.355Z,65.01
2022-11-29T05:22:31.903Z,64.44
2022-11-29T05:24:47.065Z,63.46
2022-11-29T05:27:02.398Z,63.08
2022-11-29T05:29:09.874Z,63.60
2022-11-29T05:31:29.479Z,66.15
2022-11-29T05:33:54.319Z,64.32
2022-11-29T05:36:16.203Z,53.42
2022-11-29T05:38:37.149Z,51.46
2022-11-29T05:40:58.942Z,53.50
2022-11-29T05:43:04.759Z,56.61
2022-11-29T05:45:39.132Z,58.90
2022-11-29T05:48:04.967Z,57.94
2022-11-29T05:50:19.129Z,60.93
2022-11-29T05:52:30.037Z,65.89
2022-11-29T05:54:40.867Z,70.21
2022-11-29T05:57:01.895Z,70.05
2022-11-29T05:59:27.617Z,62.21
2022-11-29T06:02:16.532Z,58.70
2022-11-29T06:04:31.882Z,55.08
2022-11-29T06:07:03.843Z,56.48
2022-11-29T06:09:20.608Z,58.59
2022-11-29T06:11:41.395Z,60.59
2022-11-29T06:14:05.766Z,60.15
2022-11-29T06:16:28.357Z,60.94
2022-11-29T06:18:49.295Z,67.07
2022-11-29T06:21:17.098Z,72.40
2022-11-29T06:24:01.705Z,70.71
2022-11-29T06:26:24.387Z,60.95
2022-11-29T06:28:36.718Z,55.09
2022-11-29T06:31:01.341Z,52.34
2022-11-29T06:33:20.378Z,53.85
2022-11-29T06:35:38.523Z,56.44
2022-11-29T06:37:50.796Z,57.44
2022-11-29T06:39:55.377Z,58.56
2022-11-29T06:41:58.128Z,59.75
2022-11-29T06:44:01.147Z,60.56
2022-11-29T06:46:14.501Z,61.00
2022-11-29T06:48:26.240Z,66.13
2022-11-29T06:51:10.656Z,71.17
2022-11-29T06:53:26.058Z,65.67
2022-11-29T06:55:47.529Z,61.76
2022-11-29T06:58:04.692Z,59.55
2022-11-29T07:00:19.667Z,54.68
2022-11-29T07:02:25.572Z,54.72
2022-11-29T07:04:50.665Z,56.00
2022-11-29T07:06:54.023Z,57.42
2022-11-29T07:09:01.620Z,58.99
2022-11-29T07:11:04.698Z,59.63
2022-11-29T07:13:07.904Z,63.32
2022-11-29T07:15:19.916Z,68.04
2022-11-29T07:17:50.960Z,66.18
2022-11-29T07:20:31.320Z,62.46
2022-11-29T07:22:44.746Z,56.50
2022-11-29T07:24:50.399Z,54.34
2022-11-29T07:27:15.701Z,55.31
2022-11-29T07:29:31.941Z,55.99
2022-11-29T07:31:46.862Z,57.72
2022-11-29T07:33:49.684Z,58.72
2022-11-29T07:36:04.682Z,58.72
2022-11-29T07:38:18.418Z,59.53
2022-11-29T07:40:53.418Z,60.56
2022-11-29T07:43:37.008Z,65.92
2022-11-29T07:45:40.326Z,68.59
2022-11-29T07:47:43.147Z,64.87
2022-11-29T07:49:45.960Z,57.24
2022-11-29T07:51:49.035Z,53.74
2022-11-29T07:53:51.948Z,53.98
2022-11-29T07:55:54.859Z,55.83
2022-11-29T07:57:57.687Z,56.97
2022-11-29T08:00:00.552Z,57.55
2022-11-29T08:02:08.788Z,58.20
2022-11-29T08:04:15.108Z,59.23
2022-11-29T08:06:25.542Z,61.00
2022-11-29T08:08:28.781Z,64.47
2022-11-29T08:10:31.961Z,67.78
2022-11-29T08:12:35.047Z,65.66
2022-11-29T08:14:37.940Z,60.29
2022-11-29T08:16:40.747Z,57.29
2022-11-29T08:18:44.338Z,53.06
2022-11-29T08:20:47.299Z,54.62
2022-11-29T08:22:55.361Z,55.22
2022-11-29T08:25:00.031Z,58.98
2022-11-29T08:27:02.855Z,59.82
2022-11-29T08:29:05.815Z,59.39
2022-11-29T08:31:10.878Z,62.31
2022-11-29T08:33:13.719Z,64.89
2022-11-29T08:35:18.184Z,63.43
2022-11-29T08:37:21.063Z,59.68
2022-11-29T08:39:23.938Z,55.68
2022-11-29T08:41:26.737Z,56.57
2022-11-29T08:43:30.743Z,57.82
2022-11-29T08:45:33.655Z,60.09
2022-11-29T08:47:38.085Z,60.03
2022-11-29T08:50:00.996Z,61.22
2022-11-29T08:52:22.564Z,62.45
2022-11-29T08:54:25.350Z,62.17
2022-11-29T08:58:50.851Z,55.62
2022-11-29T09:00:53.643Z,57.69
2022-11-29T09:03:16.384Z,55.93
2022-11-29T09:05:19.390Z,58.21
2022-11-29T09:07:22.332Z,60.07
2022-11-29T09:09:25.100Z,61.63
2022-11-29T09:11:29.918Z,63.42
2022-11-29T09:13:32.724Z,61.73
2022-11-29T09:15:37.887Z,57.87
2022-11-29T09:17:40.836Z,53.70
2022-11-29T09:19:43.593Z,52.26
2022-11-29T09:21:46.448Z,54.78
2022-11-29T09:23:49.227Z,56.56
2022-11-29T09:25:52.114Z,58.43
2022-11-29T09:27:58.221Z,59.14
2022-11-29T09:30:00.963Z,60.09
2022-11-29T09:32:04.323Z,60.09
2022-11-29T09:34:07.128Z,60.41
2022-11-29T09:36:11.099Z,60.60
2022-11-29T09:38:14.752Z,61.55
2022-11-29T09:40:22.551Z,59.85
2022-11-29T09:42:35.671Z,60.46
2022-11-29T09:45:05.168Z,62.35
2022-11-29T09:47:35.954Z,62.82
2022-11-29T09:50:16.462Z,58.84
2022-11-29T09:52:24.850Z,57.85
2022-11-29T09:54:43.879Z,58.77
2022-11-29T09:56:51.463Z,59.10
2022-11-29T09:59:13.661Z,60.30
2022-11-29T10:01:23.496Z,60.34
2022-11-29T10:03:37.974Z,60.53
2022-11-29T10:05:51.268Z,61.07
2022-11-29T10:08:08.833Z,60.67
2022-11-29T10:10:23.203Z,61.10
2022-11-29T10:12:41.380Z,61.43
2022-11-29T10:14:56.190Z,61.09
2022-11-29T10:17:39.051Z,60.54
2022-11-29T10:19:47.452Z,60.24
2022-11-29T10:21:59.955Z,60.70
2022-11-29T10:24:18.015Z,61.71
2022-11-29T10:26:25.889Z,63.14
2022-11-29T10:28:33.605Z,61.01
2022-11-29T10:30:36.722Z,57.82
2022-11-29T10:32:45.545Z,56.42
2022-11-29T10:34:49.591Z,56.70
2022-11-29T10:36:59.557Z,57.47
2022-11-29T10:39:26.210Z,57.16
2022-11-29T10:41:29.080Z,57.77
2022-11-29T10:43:32.011Z,57.97
2022-11-29T10:45:39.679Z,58.04
2022-11-29T10:47:47.969Z,57.80
2022-11-29T10:49:50.735Z,57.87
2022-11-29T10:51:53.852Z,59.29
2022-11-29T10:54:02.861Z,59.17
2022-11-29T10:56:19.335Z,59.55
2022-11-29T10:58:28.299Z,59.88
2022-11-29T11:00:33.844Z,59.97
2022-11-29T11:02:40.118Z,60.32
2022-11-29T11:04:46.394Z,60.51
2022-11-29T11:06:52.377Z,60.70
2022-11-29T11:08:57.581Z,60.38
2022-11-29T11:11:05.288Z,60.89
2022-11-29T11:13:22.342Z,60.49
2022-11-29T11:15:25.098Z,61.26
2022-11-29T11:17:32.823Z,61.02
2022-11-29T11:19:36.410Z,61.42
2022-11-29T11:21:39.488Z,61.29
2022-11-29T11:24:03.274Z,61.43
2022-11-29T11:26:08.921Z,61.45
2022-11-29T11:28:16.559Z,60.85
2022-11-29T11:30:25.637Z,61.06
2022-11-29T11:32:29.145Z,61.07
2022-11-29T11:34:34.563Z,61.34
2022-11-29T11:36:37.418Z,61.24
2022-11-29T11:38:56.273Z,61.12
2022-11-29T11:41:17.307Z,60.80
2022-11-29T11:43:21.966Z,60.19
2022-11-29T11:45:33.730Z,59.86
2022-11-29T11:47:43.211Z,60.41
2022-11-29T11:49:50.304Z,60.65
2022-11-29T11:51:53.187Z,60.46
2022-11-29T11:53:57.517Z,60.22
2022-11-29T11:56:01.828Z,60.13
2022-11-29T11:58:13.618Z,59.78
2022-11-29T12:03:02.456Z,60.55
2022-11-29T12:05:13.465Z,60.46
2022-11-29T12:07:51.985Z,60.18
2022-11-29T12:09:56.646Z,59.62
2022-11-29T12:12:18.003Z,59.66
2022-11-29T12:14:50.198Z,59.62
2022-11-29T12:17:03.404Z,59.88
2022-11-29T12:19:18.154Z,60.11
2022-11-29T12:21:26.421Z,60.56
2022-11-29T12:23:40.177Z,60.55
2022-11-29T12:26:06.058Z,60.63
2022-11-29T12:28:19.813Z,60.91
2022-11-29T12:30:23.471Z,61.02
2022-11-29T12:32:36.469Z,60.91
2022-11-29T12:35:18.842Z,60.80
2022-11-29T12:37:50.173Z,61.31
2022-11-29T12:40:22.358Z,61.06
2022-11-29T12:42:46.510Z,61.62
2022-11-29T12:45:26.965Z,61.12
2022-11-29T12:47:51.555Z,61.38
2022-11-29T12:50:16.346Z,61.22
2022-11-29T12:52:37.420Z,61.49
2022-11-29T12:54:46.562Z,61.67
2022-11-29T12:57:01.870Z,61.55
2022-11-29T12:59:34.208Z,61.65
2022-11-29T13:02:00.684Z,60.81
2022-11-29T13:04:22.332Z,61.16
2022-11-29T13:06:36.505Z,60.72
2022-11-29T13:08:54.208Z,60.37
2022-11-29T13:11:36.583Z,59.73
2022-11-29T13:13:43.186Z,60.01
2022-11-29T13:16:29.238Z,59.19
2022-11-29T13:18:48.800Z,59.29
2022-11-29T13:21:07.821Z,59.24
2022-11-29T13:23:46.000Z,58.90
2022-11-29T13:25:54.606Z,59.03
2022-11-29T13:28:17.982Z,58.84
2022-11-29T13:30:21.050Z,59.31
2022-11-29T13:32:37.388Z,59.25
2022-11-29T13:34:45.600Z,59.36
2022-11-29T13:36:54.221Z,59.39
2022-11-29T13:39:10.602Z,59.82
2022-11-29T13:41:35.473Z,59.73
2022-11-29T13:44:13.478Z,60.42
2022-11-29T13:46:49.925Z,60.59
2022-11-29T13:48:54.534Z,60.99
2022-11-29T13:50:58.074Z,61.02
2022-11-29T13:53:11.880Z,61.18
2022-11-29T13:55:15.514Z,61.28
2022-11-29T13:57:18.437Z,61.29
2022-11-29T13:59:32.882Z,61.54
2022-11-29T14:01:45.521Z,61.61
2022-11-29T14:04:14.611Z,61.82
2022-11-29T14:06:38.096Z,61.72
2022-11-29T14:09:17.436Z,61.75
2022-11-29T14:11:07.133Z,62.02
2022-11-29T14:13:15.543Z,67.30
2022-11-29T14:15:29.461Z,69.69
2022-11-29T14:17:45.563Z,64.06
2022-11-29T14:19:48.471Z,61.78
2022-11-29T14:22:03.039Z,57.18
2022-11-29T14:24:34.035Z,55.94
2022-11-29T14:26:36.909Z,58.77
2022-11-29T14:28:40.223Z,60.98
2022-11-29T14:30:51.383Z,62.28
2022-11-29T14:33:18.509Z,67.66
2022-11-29T14:35:49.745Z,66.90
2022-11-29T14:38:04.347Z,64.28
2022-11-29T14:40:26.067Z,60.87
2022-11-29T14:42:29.627Z,54.85
2022-11-29T14:44:34.495Z,55.16
2022-11-29T14:46:37.568Z,58.09
2022-11-29T14:48:58.751Z,60.66
2022-11-29T14:51:09.158Z,65.01
2022-11-29T14:53:48.913Z,65.96
2022-11-29T14:55:52.100Z,62.91
2022-11-29T14:58:06.388Z,60.04
2022-11-29T15:00:14.274Z,57.96
2022-11-29T15:02:41.360Z,57.71
2022-11-29T15:04:45.124Z,60.56
2022-11-29T15:06:53.121Z,64.98
2022-11-29T15:09:03.477Z,67.27
2022-11-29T15:11:20.022Z,64.74
2022-11-29T15:13:29.168Z,61.23
2022-11-29T15:15:36.720Z,56.30
2022-11-29T15:17:55.559Z,55.71
2022-11-29T15:20:04.397Z,58.33
2022-11-29T15:22:24.215Z,60.88
2022-11-29T15:24:28.939Z,67.15
2022-11-29T15:26:32.805Z,66.93
2022-11-29T15:28:35.681Z,61.79
2022-11-29T15:30:40.774Z,55.59
2022-11-29T15:32:43.726Z,54.59
2022-11-29T15:34:51.941Z,57.85
2022-11-29T15:36:54.913Z,60.12
2022-11-29T15:38:59.265Z,61.78
2022-11-29T15:41:03.017Z,67.06
2022-11-29T15:43:35.140Z,67.41
2022-11-29T15:45:39.347Z,66.84
2022-11-29T15:47:43.019Z,63.07
2022-11-29T15:49:46.234Z,58.82
2022-11-29T15:51:56.088Z,56.34
2022-11-29T15:54:13.330Z,57.72
2022-11-29T15:56:42.895Z,60.98
2022-11-29T15:58:47.918Z,66.11
2022-11-29T16:00:52.461Z,66.04
2022-11-29T16:02:59.793Z,64.70
2022-11-29T16:05:16.495Z,61.10
2022-11-29T16:07:22.235Z,56.10
2022-11-29T16:09:48.314Z,55.46
2022-11-29T16:11:51.980Z,57.44
2022-11-29T16:14:12.693Z,60.01
2022-11-29T16:16:23.102Z,62.71
2022-11-29T16:18:25.989Z,69.08
2022-11-29T16:20:29.083Z,65.88
2022-11-29T16:22:32.595Z,60.57
2022-11-29T16:24:38.223Z,54.95
2022-11-29T16:26:44.594Z,55.61
2022-11-29T16:28:50.208Z,57.68
2022-11-29T16:30:52.997Z,61.08
2022-11-29T16:32:59.348Z,65.16
2022-11-29T16:35:27.514Z,67.82
2022-11-29T16:37:37.012Z,60.68
2022-11-29T16:39:40.202Z,55.17
2022-11-29T16:41:43.007Z,55.30
2022-11-29T16:43:53.938Z,58.49
2022-11-29T16:46:22.289Z,60.91
2022-11-29T16:48:27.682Z,67.59
2022-11-29T16:50:32.851Z,65.30
2022-11-29T16:52:35.620Z,63.36
2022-11-29T16:54:38.397Z,59.68
2022-11-29T16:56:41.231Z,55.92
2022-11-29T16:59:25.304Z,56.81
2022-11-29T17:01:23.778Z,60.37
2022-11-29T17:03:31.259Z,66.25
2022-11-29T17:05:34.121Z,65.71
2022-11-29T17:07:39.524Z,61.66
2022-11-29T17:09:43.109Z,59.41
2022-11-29T17:11:45.933Z,55.92
2022-11-29T17:13:52.904Z,57.49
2022-11-29T17:15:55.831Z,61.20
2022-11-29T17:17:58.708Z,66.43
2022-11-29T17:20:01.626Z,66.88
2022-11-29T17:22:04.587Z,62.08
2022-11-29T17:24:11.745Z,58.84
2022-11-29T17:26:15.654Z,56.35
2022-11-29T17:28:18.499Z,58.61
2022-11-29T17:30:21.320Z,62.88
2022-11-29T17:32:26.898Z,67.38
2022-11-29T17:34:30.352Z,65.26
2022-11-29T17:36:33.561Z,62.52
2022-11-29T17:38:37.049Z,60.34
2022-11-29T17:40:40.181Z,58.28
2022-11-29T17:42:42.978Z,59.14
2022-11-29T17:44:45.781Z,62.20
2022-11-29T17:46:48.576Z,67.97
2022-11-29T17:48:52.295Z,67.86
2022-11-29T17:51:00.106Z,65.89
2022-11-29T17:53:03.210Z,61.04
2022-11-29T17:55:06.619Z,59.65
2022-11-29T17:57:09.511Z,58.33
2022-11-29T17:59:12.348Z,59.88
2022-11-29T18:01:19.348Z,64.88
2022-11-29T18:03:22.146Z,67.69
2022-11-29T18:05:26.226Z,65.22
2022-11-29T18:07:30.908Z,61.90
2022-11-29T18:09:33.929Z,59.07
2022-11-29T18:11:47.112Z,56.84
2022-11-29T18:13:52.999Z,59.52
2022-11-29T18:16:06.954Z,64.19
2022-11-29T18:18:10.798Z,69.56
2022-11-29T18:20:14.461Z,65.66
2022-11-29T18:22:17.237Z,61.83
2022-11-29T18:24:20.198Z,58.46
2022-11-29T18:26:24.792Z,56.59
2022-11-29T18:28:29.582Z,59.01
2022-11-29T18:30:32.564Z,62.68
2022-11-29T18:32:35.409Z,67.99
2022-11-29T18:34:38.244Z,68.51
2022-11-29T18:36:43.802Z,64.48
2022-11-29T18:38:47.752Z,61.33
2022-11-29T18:40:50.742Z,59.97
2022-11-29T18:42:53.779Z,57.71
2022-11-29T18:44:58.849Z,58.59
2022-11-29T18:47:03.951Z,62.43
2022-11-29T18:49:09.108Z,67.37
2022-11-29T18:51:18.320Z,68.41
2022-11-29T18:53:21.168Z,67.07
2022-11-29T18:55:24.995Z,66.25
2022-11-29T18:57:33.541Z,66.15
2022-11-29T18:59:36.854Z,61.77
2022-11-29T19:01:42.849Z,58.89
2022-11-29T19:03:50.546Z,58.47
2022-11-29T19:05:54.512Z,61.96
2022-11-29T19:07:57.397Z,65.80
2022-11-29T19:10:00.254Z,66.46
2022-11-29T19:12:04.051Z,66.51
2022-11-29T19:14:11.697Z,64.82
2022-11-29T19:16:18.162Z,63.66
2022-11-29T19:18:22.308Z,63.00
2022-11-29T19:20:25.065Z,63.08
2022-11-29T19:22:29.532Z,63.69
2022-11-29T19:24:32.379Z,63.16
2022-11-29T19:26:35.204Z,62.01
2022-11-29T19:28:39.940Z,60.79
2022-11-29T19:30:42.933Z,59.93
2022-11-29T19:32:45.743Z,57.66
2022-11-29T19:34:48.503Z,57.82
2022-11-29T19:36:51.243Z,59.69
2022-11-29T19:38:54.742Z,64.59
2022-11-29T19:40:57.708Z,68.01
2022-11-29T19:43:00.556Z,65.74
2022-11-29T19:45:19.624Z,63.47
2022-11-29T19:47:22.542Z,63.46
2022-11-29T19:49:25.379Z,64.87
2022-11-29T19:51:30.125Z,63.05
2022-11-29T19:53:33.852Z,60.98
2022-11-29T19:55:43.799Z,56.99
2022-11-29T19:57:47.101Z,55.94
2022-11-29T19:59:49.811Z,60.10
2022-11-29T20:01:52.599Z,65.43
2022-11-29T20:03:56.640Z,67.27
2022-11-29T20:06:00.140Z,65.55
2022-11-29T20:08:03.003Z,63.48
2022-11-29T20:10:08.161Z,62.35
2022-11-29T20:12:11.118Z,61.82
2022-11-29T20:14:14.735Z,62.32
2022-11-29T20:16:19.329Z,63.03
2022-11-29T20:18:22.164Z,61.49
2022-11-29T20:20:25.168Z,60.71
2022-11-29T20:22:28.084Z,59.75
2022-11-29T20:24:35.330Z,60.28
2022-11-29T20:26:45.824Z,59.40
2022-11-29T20:28:48.618Z,56.57
2022-11-29T20:30:51.505Z,58.23
2022-11-29T20:32:54.603Z,60.83
2022-11-29T20:34:59.220Z,65.81
2022-11-29T20:37:21.266Z,69.92
2022-11-29T20:39:51.981Z,66.31
2022-11-29T20:42:25.976Z,60.56
2022-11-29T20:44:43.111Z,55.92
2022-11-29T20:46:46.097Z,57.27
2022-11-29T20:48:49.636Z,61.00
2022-11-29T20:51:02.560Z,66.09
2022-11-29T20:53:43.439Z,67.69
2022-11-29T20:55:48.515Z,66.46
2022-11-29T20:57:51.417Z,61.77
2022-11-29T20:59:54.362Z,57.36
2022-11-29T21:01:57.697Z,55.50
2022-11-29T21:04:00.747Z,57.62
2022-11-29T21:06:05.756Z,61.66
2022-11-29T21:08:08.563Z,68.40
2022-11-29T21:10:11.957Z,68.04
2022-11-29T21:12:15.296Z,63.65
2022-11-29T21:14:18.553Z,58.52
2022-11-29T21:16:28.490Z,54.21
2022-11-29T21:18:31.805Z,55.65
2022-11-29T21:20:34.760Z,60.62
2022-11-29T21:22:51.842Z,65.95
2022-11-29T21:24:57.229Z,68.40
2022-11-29T21:27:00.302Z,61.77
2022-11-29T21:29:15.091Z,55.91
2022-11-29T21:31:19.138Z,55.45
2022-11-29T21:33:22.303Z,59.02
2022-11-29T21:35:25.129Z,63.65
2022-11-29T21:37:30.952Z,68.34
2022-11-29T21:39:34.188Z,65.21
2022-11-29T21:41:37.037Z,61.22
2022-11-29T21:44:05.401Z,58.86
2022-11-29T21:46:03.495Z,54.11
2022-11-29T21:48:29.321Z,56.48
2022-11-29T21:50:32.036Z,60.80
2022-11-29T21:52:34.868Z,65.20
2022-11-29T21:54:37.684Z,68.29
2022-11-29T21:56:40.616Z,66.00
2022-11-29T21:58:43.468Z,63.27
2022-11-29T22:00:46.247Z,60.47
2022-11-29T22:02:49.081Z,56.71
2022-11-29T22:04:52.022Z,55.23
2022-11-29T22:06:55.016Z,58.60
2022-11-29T22:09:05.565Z,62.06
2022-11-29T22:11:14.388Z,66.30
2022-11-29T22:13:17.164Z,68.21
2022-11-29T22:15:24.492Z,64.59
2022-11-29T22:17:28.064Z,58.07
2022-11-29T22:19:34.132Z,55.26
2022-11-29T22:21:37.127Z,57.16
2022-11-29T22:23:40.197Z,60.26
2022-11-29T22:25:42.920Z,66.49
2022-11-29T22:27:45.674Z,70.27
2022-11-29T22:29:49.037Z,64.54
2022-11-29T22:31:54.766Z,59.44
2022-11-29T22:33:57.689Z,54.90
2022-11-29T22:36:09.583Z,56.41
2022-11-29T22:38:12.414Z,58.68
2022-11-29T22:40:15.989Z,60.71
2022-11-29T22:42:18.772Z,64.73
2022-11-29T22:44:21.990Z,71.41
2022-11-29T22:46:26.888Z,67.31
2022-11-29T22:48:33.006Z,62.32
2022-11-29T22:50:38.396Z,60.80
2022-11-29T22:52:41.158Z,57.46
2022-11-29T22:54:44.062Z,58.75
2022-11-29T22:56:47.478Z,60.35
2022-11-29T22:58:50.766Z,65.77
2022-11-29T23:01:01.166Z,67.26
2022-11-29T23:03:03.962Z,62.75
2022-11-29T23:05:06.923Z,59.90
2022-11-29T23:07:09.705Z,56.45
2022-11-29T23:09:19.972Z,56.88
2022-11-29T23:11:28.367Z,60.58
2022-11-29T23:13:34.148Z,66.60
2022-11-29T23:15:36.955Z,68.05
2022-11-29T23:17:39.857Z,65.73
2022-11-29T23:19:42.652Z,62.76
2022-11-29T23:21:46.326Z,60.94
2022-11-29T23:23:54.647Z,57.35
2022-11-29T23:25:59.502Z,56.65
2022-11-29T23:28:02.311Z,58.61
2022-11-29T23:30:06.394Z,61.69
2022-11-29T23:32:09.218Z,65.51
2022-11-29T23:34:12.362Z,69.36
2022-11-29T23:36:16.923Z,67.04
2022-11-29T23:38:19.721Z,63.64
2022-11-29T23:40:22.511Z,64.07
2022-11-29T23:42:25.728Z,60.36
2022-11-29T23:44:28.544Z,56.88
2022-11-29T23:46:32.128Z,57.12
2022-11-29T23:48:35.039Z,60.38
2022-11-29T23:50:37.818Z,65.08
2022-11-29T23:52:40.567Z,69.09
2022-11-29T23:54:43.468Z,65.51
2022-11-29T23:56:46.364Z,60.64
2022-11-29T23:58:49.209Z,57.29
